Time;durP1;ratioP1;P1;durP2;ratioP2;P2;SDS_P1;SDS_P2;PMS_P1;PMS_P2;Temp;Humidity;BMP_temperature;BMP_pressure;BME280_temperature;BME280_humidity;BME280_pressure;Samples;Min_cycle;Max_cycle;Signal;HPM_P1;HPM_P2
2022/07/22 00:01:26;;;;;;;8.85;4.50;;;;;;;16.08;89.11;102119.03;5040847;28;20051;-43
2022/07/22 00:03:52;;;;;;;10.32;4.60;;;;;;;16.11;89.01;102117.13;5041841;28;20033;-43
2022/07/22 00:06:17;;;;;;;8.38;4.50;;;;;;;16.08;89.84;102113.69;5042131;28;20468;-44
2022/07/22 00:08:42;;;;;;;9.98;4.70;;;;;;;16.12;89.95;102111.63;5041389;28;20395;-44
2022/07/22 00:11:08;;;;;;;12.33;5.43;;;;;;;16.11;89.90;102106.41;5042465;28;20025;-45
2022/07/22 00:13:33;;;;;;;9.85;5.20;;;;;;;16.10;89.59;102113.56;5039626;28;20268;-45
2022/07/22 00:15:59;;;;;;;7.95;5.15;;;;;;;16.09;90.63;102107.38;5041923;28;20033;-44
2022/07/22 00:18:24;;;;;;;8.82;5.22;;;;;;;16.10;90.24;102108.22;5034711;28;20141;-44
2022/07/22 00:20:50;;;;;;;10.90;5.53;;;;;;;16.09;89.55;102104.69;5041000;28;20082;-44
2022/07/22 00:23:15;;;;;;;11.60;6.13;;;;;;;16.06;90.76;102099.56;5041763;28;20013;-44
2022/07/22 00:25:40;;;;;;;11.10;5.55;;;;;;;16.09;91.00;102107.38;5042012;28;20060;-44
2022/07/22 00:28:06;;;;;;;11.13;5.57;;;;;;;16.10;90.62;102102.84;5043358;28;20056;-44
2022/07/22 00:30:31;;;;;;;11.60;6.25;;;;;;;16.11;91.11;102117.13;5042162;28;20034;-44
2022/07/22 00:32:56;;;;;;;11.73;5.63;;;;;;;16.09;90.86;102106.53;5044750;28;20036;-45
2022/07/22 00:35:22;;;;;;;11.73;5.70;;;;;;;16.11;90.32;102106.41;5044509;28;20081;-45
2022/07/22 00:37:47;;;;;;;10.95;6.00;;;;;;;16.11;91.10;102106.41;5043173;28;20308;-46
2022/07/22 00:40:12;;;;;;;11.10;5.50;;;;;;;16.06;90.67;102098.72;5044185;28;20037;-44
2022/07/22 00:42:38;;;;;;;10.90;5.70;;;;;;;16.09;90.67;102103.84;5043017;28;20025;-44
2022/07/22 00:45:04;;;;;;;11.57;6.45;;;;;;;16.08;90.75;102105.66;5048490;28;20427;-44
2022/07/22 00:47:29;;;;;;;14.23;6.13;;;;;;;16.04;89.81;102098.84;5046932;28;20028;-45
2022/07/22 00:49:54;;;;;;;13.23;6.13;;;;;;;16.05;90.94;102100.56;5041210;28;20029;-44
2022/07/22 00:52:21;;;;;;;13.80;5.90;;;;;;;16.04;90.95;102104.19;5044976;28;20294;-44
2022/07/22 00:54:47;;;;;;;10.43;5.55;;;;;;;16.05;90.70;102094.31;5041044;28;20446;-43
2022/07/22 00:57:12;;;;;;;12.65;5.60;;;;;;;16.03;90.56;102089.09;5043190;28;20041;-44
2022/07/22 00:59:38;;;;;;;10.98;6.00;;;;;;;16.05;90.71;102092.53;5046783;28;20067;-44
2022/07/22 01:02:03;;;;;;;11.07;5.60;;;;;;;16.06;90.84;102090.69;5042748;28;20025;-44
2022/07/22 01:04:28;;;;;;;8.77;5.13;;;;;;;16.02;89.51;102087.41;5043196;28;20036;-44
2022/07/22 01:06:54;;;;;;;12.57;4.97;;;;;;;16.01;90.21;102087.53;5025744;28;20032;-44
2022/07/22 01:09:19;;;;;;;12.43;5.15;;;;;;;16.02;90.96;102084.72;5042506;28;20037;-43
2022/07/22 01:11:44;;;;;;;9.80;4.93;;;;;;;16.05;90.37;102087.16;5042224;28;20032;-45
2022/07/22 01:14:09;;;;;;;13.77;5.50;;;;;;;16.03;90.11;102082.88;5043290;28;20053;-43
2022/07/22 01:16:36;;;;;;;12.90;5.20;;;;;;;16.01;88.81;102084.84;5008886;28;20376;-43
2022/07/22 01:19:01;;;;;;;9.82;4.80;;;;;;;16.00;89.53;102085.81;5042871;28;20021;-45
2022/07/22 01:21:26;;;;;;;11.70;5.15;;;;;;;16.01;89.58;102082.16;5041328;28;20135;-45
2022/07/22 01:23:52;;;;;;;11.30;5.20;;;;;;;16.00;89.21;102080.44;5040027;28;20049;-43
2022/07/22 01:26:17;;;;;;;9.05;4.40;;;;;;;15.98;88.79;102085.09;5043350;28;20378;-43
2022/07/22 01:28:43;;;;;;;10.02;5.28;;;;;;;15.91;89.49;102074.84;5024734;28;20021;-44
2022/07/22 01:31:08;;;;;;;10.45;4.85;;;;;;;15.91;89.45;102079.34;5043258;28;20021;-44
2022/07/22 01:33:34;;;;;;;9.38;4.53;;;;;;;15.93;89.50;102088.13;5041389;28;20495;-44
2022/07/22 01:35:59;;;;;;;13.65;5.35;;;;;;;15.90;89.83;102078.53;5041955;28;20511;-46
2022/07/22 01:38:25;;;;;;;11.48;5.18;;;;;;;15.87;90.75;102080.56;5041125;28;20032;-43
2022/07/22 01:40:50;;;;;;;8.18;4.82;;;;;;;15.84;88.42;102084.34;5040720;28;20029;-44
2022/07/22 01:43:17;;;;;;;11.45;5.55;;;;;;;15.79;88.72;102083.03;5040655;28;20519;-43
2022/07/22 01:45:44;;;;;;;12.27;5.60;;;;;;;15.78;89.40;102079.47;5039888;28;20040;-42
2022/07/22 01:48:10;;;;;;;10.43;5.63;;;;;;;15.73;88.31;102079.78;5040451;28;20025;-43
2022/07/22 01:50:35;;;;;;;10.98;6.00;;;;;;;15.68;87.97;102082.00;5041179;28;20254;-45
2022/07/22 01:53:00;;;;;;;11.32;5.47;;;;;;;15.63;88.04;102086.84;5037610;28;20042;-44
2022/07/22 01:55:26;;;;;;;10.43;5.60;;;;;;;15.63;88.68;102086.00;5029641;28;20040;-44
2022/07/22 01:57:51;;;;;;;9.88;5.65;;;;;;;15.56;88.94;102088.31;5042058;28;20037;-44
2022/07/22 02:00:17;;;;;;;10.70;6.05;;;;;;;15.51;88.58;102088.66;5035748;28;20566;-43
2022/07/22 02:02:42;;;;;;;12.25;6.18;;;;;;;15.51;89.70;102091.34;5019894;28;20113;-43
2022/07/22 02:05:08;;;;;;;13.48;5.85;;;;;;;15.51;89.98;102087.81;5040298;28;20022;-44
2022/07/22 02:07:33;;;;;;;11.15;5.72;;;;;;;15.48;89.88;102080.03;5039677;28;20025;-42
2022/07/22 02:10:00;;;;;;;14.65;5.68;;;;;;;15.44;89.54;102079.41;5038067;28;20396;-43
2022/07/22 02:12:25;;;;;;;12.73;6.00;;;;;;;15.48;90.06;102082.72;5044812;28;20021;-43
2022/07/22 02:14:50;;;;;;;13.90;6.00;;;;;;;15.44;90.57;102075.91;5042589;28;20029;-43
2022/07/22 02:17:16;;;;;;;15.77;6.65;;;;;;;15.43;91.09;102074.19;5032107;28;20121;-44
2022/07/22 02:19:41;;;;;;;14.38;6.13;;;;;;;15.41;90.83;102076.97;5035234;28;20025;-43
2022/07/22 02:22:07;;;;;;;15.70;7.03;;;;;;;15.43;90.99;102076.84;5044861;28;20049;-45
2022/07/22 02:24:33;;;;;;;9.68;5.85;;;;;;;15.39;91.14;102072.69;5040889;28;20090;-46
2022/07/22 02:26:58;;;;;;;13.60;6.88;;;;;;;15.46;91.11;102077.47;5048470;28;20034;-46
2022/07/22 02:29:23;;;;;;;17.85;6.95;;;;;;;15.44;91.70;102082.09;5042269;28;20034;-44
2022/07/22 02:31:48;;;;;;;12.27;6.30;;;;;;;15.41;91.69;102070.78;5040581;28;20030;-46
2022/07/22 02:34:14;;;;;;;10.50;6.33;;;;;;;15.44;92.20;102078.56;5047370;28;20046;-45
2022/07/22 02:36:39;;;;;;;13.00;6.53;;;;;;;15.43;91.63;102071.50;5047133;28;20294;-45
2022/07/22 02:39:04;;;;;;;13.98;7.00;;;;;;;15.40;92.04;102077.09;5037984;28;20689;-43
2022/07/22 02:41:30;;;;;;;11.38;6.57;;;;;;;15.45;92.22;102066.88;5042490;28;20100;-45
2022/07/22 02:43:55;;;;;;;13.00;6.90;;;;;;;15.44;91.81;102073.22;5044048;28;20079;-45
2022/07/22 02:46:22;;;;;;;12.75;6.35;;;;;;;15.46;91.53;102072.13;5042491;28;20116;-45
2022/07/22 02:48:47;;;;;;;13.73;6.50;;;;;;;15.46;90.87;102063.25;5051108;28;20040;-44
2022/07/22 02:51:12;;;;;;;13.07;7.57;;;;;;;15.45;91.99;102072.22;5039825;28;20014;-44
2022/07/22 02:53:38;;;;;;;14.45;7.00;;;;;;;15.44;91.48;102065.19;5041917;28;20375;-46
2022/07/22 02:56:03;;;;;;;14.80;7.22;;;;;;;15.47;91.14;102070.28;5040061;28;20116;-44
2022/07/22 02:58:28;;;;;;;11.48;6.88;;;;;;;15.43;91.73;102058.13;5041926;28;20025;-45
2022/07/22 03:00:54;;;;;;;12.38;6.95;;;;;;;15.43;91.79;102058.97;5042647;28;20028;-43
2022/07/22 03:03:19;;;;;;;12.17;6.70;;;;;;;15.41;90.93;102060.06;5043101;28;20038;-46
2022/07/22 03:05:44;;;;;;;14.18;6.70;;;;;;;15.39;91.70;102045.94;5046749;28;20291;-44
2022/07/22 03:08:11;;;;;;;14.25;6.75;;;;;;;15.43;91.85;102052.75;5042952;28;20079;-43
2022/07/22 03:10:36;;;;;;;12.20;6.93;;;;;;;15.40;90.48;102053.84;5043067;28;20021;-43
2022/07/22 03:13:02;;;;;;;12.32;7.03;;;;;;;15.41;90.58;102050.19;5056865;28;20045;-43
2022/07/22 03:15:27;;;;;;;12.53;6.83;;;;;;;15.41;91.19;102049.38;5042603;28;20129;-43
2022/07/22 03:17:52;;;;;;;12.87;6.53;;;;;;;15.41;90.96;102046.69;5040996;28;20323;-43
2022/07/22 03:20:17;;;;;;;13.40;6.88;;;;;;;15.39;91.09;102046.81;5030452;28;20303;-44
2022/07/22 03:22:43;;;;;;;12.77;6.97;;;;;;;15.40;92.25;102044.97;5055754;28;20074;-44
2022/07/22 03:25:08;;;;;;;14.43;7.07;;;;;;;15.38;91.83;102052.28;5062629;28;20272;-43
2022/07/22 03:27:34;;;;;;;10.88;7.05;;;;;;;15.34;92.32;102049.00;5048979;28;20033;-44
2022/07/22 03:29:59;;;;;;;15.45;7.55;;;;;;;15.33;91.12;102049.94;5043109;28;20037;-43
2022/07/22 03:32:24;;;;;;;18.15;8.07;;;;;;;15.31;91.78;102047.38;5043171;28;20041;-44
2022/07/22 03:34:50;;;;;;;15.57;6.83;;;;;;;15.32;91.86;102051.78;5042112;28;20021;-44
2022/07/22 03:37:15;;;;;;;13.93;7.28;;;;;;;15.30;91.47;102045.66;5042472;28;20359;-44
2022/07/22 03:39:40;;;;;;;12.27;7.57;;;;;;;15.29;90.85;102045.81;5041438;28;20114;-45
2022/07/22 03:42:06;;;;;;;14.32;7.72;;;;;;;15.27;90.93;102056.63;5050276;28;20294;-44
2022/07/22 03:44:31;;;;;;;21.05;7.68;;;;;;;15.25;91.57;102053.19;5042338;28;20505;-47
2022/07/22 03:46:56;;;;;;;16.73;7.22;;;;;;;15.27;92.19;102050.41;5049596;28;20044;-44
2022/07/22 03:49:21;;;;;;;12.77;7.30;;;;;;;15.26;92.98;102054.91;5048413;28;20093;-44
2022/07/22 03:51:47;;;;;;;10.73;6.70;;;;;;;15.26;91.50;102054.91;5055853;28;20310;-44
2022/07/22 03:54:12;;;;;;;12.70;7.33;;;;;;;15.25;92.66;102050.53;5045271;28;20720;-44
2022/07/22 03:56:38;;;;;;;11.40;7.50;;;;;;;15.24;91.82;102061.34;5043726;28;20307;-44
2022/07/22 03:59:03;;;;;;;17.52;7.93;;;;;;;15.21;92.81;102061.63;5044030;28;20026;-44
2022/07/22 04:01:28;;;;;;;16.05;7.88;;;;;;;15.21;92.56;102054.44;5043557;28;20093;-46
2022/07/22 04:03:54;;;;;;;14.02;7.95;;;;;;;15.21;92.41;102059.78;5048297;28;20026;-45
2022/07/22 04:06:19;;;;;;;10.55;7.68;;;;;;;15.17;93.30;102063.66;5043234;28;20041;-43
2022/07/22 04:08:44;;;;;;;12.40;7.57;;;;;;;15.22;92.69;102065.97;5042005;28;20048;-44
2022/07/22 04:11:09;;;;;;;13.37;7.00;;;;;;;15.22;91.98;102074.00;5052142;28;20053;-44
2022/07/22 04:13:35;;;;;;;13.85;7.47;;;;;;;15.19;92.46;102072.44;5044123;28;20671;-45
2022/07/22 04:16:00;;;;;;;13.38;7.25;;;;;;;15.20;92.42;102075.94;5042221;28;20044;-44
2022/07/22 04:18:26;;;;;;;15.30;6.83;;;;;;;15.19;92.91;102069.75;5043737;28;20034;-45
2022/07/22 04:20:51;;;;;;;13.55;7.53;;;;;;;15.21;93.18;102065.13;5042355;28;20279;-45
2022/07/22 04:23:16;;;;;;;13.18;7.00;;;;;;;15.21;91.84;102075.84;5043565;28;20052;-44
2022/07/22 04:25:42;;;;;;;16.30;7.40;;;;;;;15.23;92.46;102073.03;5045396;28;20027;-44
2022/07/22 04:28:07;;;;;;;13.25;7.07;;;;;;;15.25;93.00;102074.63;5044025;28;20029;-44
2022/07/22 04:30:32;;;;;;;15.32;7.45;;;;;;;15.29;93.11;102067.22;5025578;28;20025;-44
2022/07/22 04:32:58;;;;;;;16.75;8.25;;;;;;;15.32;93.05;102069.63;5048661;28;20077;-44
2022/07/22 04:35:24;;;;;;;15.20;7.95;;;;;;;15.33;93.83;102071.34;5042245;28;20025;-45
2022/07/22 04:37:49;;;;;;;14.63;7.65;;;;;;;15.32;92.33;102070.50;5041269;28;20296;-44
2022/07/22 04:40:14;;;;;;;10.55;7.00;;;;;;;15.35;93.25;102064.94;5042593;28;20037;-44
2022/07/22 04:42:40;;;;;;;13.27;7.80;;;;;;;15.34;93.69;102060.53;5042041;28;20120;-44
2022/07/22 04:45:05;;;;;;;15.25;8.00;;;;;;;15.38;92.98;102057.63;5039217;28;20052;-44
2022/07/22 04:47:30;;;;;;;15.80;7.88;;;;;;;15.38;92.72;102065.66;5047171;28;20031;-44
2022/07/22 04:49:56;;;;;;;12.23;7.70;;;;;;;15.41;93.03;102062.75;5047914;28;20582;-45
2022/07/22 04:52:21;;;;;;;14.67;7.90;;;;;;;15.44;93.47;102054.47;5042789;28;20291;-43
2022/07/22 04:54:46;;;;;;;15.35;8.05;;;;;;;15.44;93.25;102059.84;5041130;28;20334;-44
2022/07/22 04:57:12;;;;;;;12.60;7.40;;;;;;;15.49;93.47;102052.28;5045089;28;20017;-43
2022/07/22 04:59:37;;;;;;;12.55;7.82;;;;;;;15.49;93.38;102044.25;5041418;28;20029;-43
2022/07/22 05:02:03;;;;;;;14.57;8.43;;;;;;;15.51;92.79;102053.03;5042265;28;20029;-43
2022/07/22 05:04:28;;;;;;;15.98;8.57;;;;;;;15.54;92.16;102058.13;5043982;28;20021;-46
2022/07/22 05:06:53;;;;;;;13.85;8.35;;;;;;;15.52;93.02;102055.56;5046182;28;20033;-43
2022/07/22 05:09:18;;;;;;;15.15;8.40;;;;;;;15.56;92.77;102044.63;5045897;28;20025;-44
2022/07/22 05:11:44;;;;;;;17.57;8.80;;;;;;;15.59;93.89;102041.69;5047021;28;20025;-46
2022/07/22 05:14:09;;;;;;;18.25;9.13;;;;;;;15.61;92.59;102048.63;5045980;28;20383;-46
2022/07/22 05:16:37;;;;;;;18.93;9.30;;;;;;;15.66;93.14;102046.44;5046609;28;20053;-46
2022/07/22 05:19:04;;;;;;;17.67;8.97;;;;;;;15.69;92.46;102045.38;5046689;28;20292;-45
2022/07/22 05:21:30;;;;;;;16.75;9.40;;;;;;;15.71;93.60;102043.41;5045669;28;20273;-45
2022/07/22 05:23:55;;;;;;;16.25;9.20;;;;;;;15.80;93.26;102044.53;5047097;28;20136;-45
2022/07/22 05:26:20;;;;;;;20.17;9.43;;;;;;;15.80;92.43;102049.88;5058812;28;20079;-47
2022/07/22 05:28:46;;;;;;;19.80;8.80;;;;;;;15.86;93.16;102046.72;5047352;28;20349;-43
2022/07/22 05:31:11;;;;;;;16.98;9.70;;;;;;;15.93;93.25;102039.06;5046681;28;20064;-44
2022/07/22 05:33:36;;;;;;;27.57;9.87;;;;;;;15.95;93.00;102043.28;5046822;28;20120;-44
2022/07/22 05:36:02;;;;;;;28.60;11.18;;;;;;;16.00;92.75;102051.81;5047488;28;20284;-45
2022/07/22 05:38:27;;;;;;;27.38;11.70;;;;;;;16.13;93.33;102050.84;5046370;28;20017;-45
2022/07/22 05:40:53;;;;;;;19.73;9.88;;;;;;;16.27;92.95;102043.38;5043738;28;20545;-43
2022/07/22 05:43:18;;;;;;;21.95;9.68;;;;;;;16.34;91.65;102051.78;5040452;28;20095;-42
2022/07/22 05:45:44;;;;;;;17.90;9.70;;;;;;;16.40;92.01;102056.63;5048164;28;20112;-41
2022/07/22 05:48:09;;;;;;;18.17;8.73;;;;;;;16.43;91.98;102053.69;5042352;28;20033;-43
2022/07/22 05:50:35;;;;;;;15.73;9.05;;;;;;;16.47;91.42;102054.31;5044440;28;20061;-45
2022/07/22 05:53:01;;;;;;;22.08;8.93;;;;;;;16.55;91.75;102057.16;5048789;28;20040;-42
2022/07/22 05:55:26;;;;;;;18.02;9.07;;;;;;;16.67;91.78;102060.69;5050713;28;20022;-46
2022/07/22 05:57:51;;;;;;;14.00;9.15;;;;;;;16.77;91.22;102058.06;5036937;28;20056;-48
2022/07/22 06:00:17;;;;;;;18.88;9.60;;;;;;;16.89;92.09;102056.25;5028055;28;20029;-46
2022/07/22 06:02:42;;;;;;;17.70;8.75;;;;;;;16.97;89.92;102051.94;5028872;28;20243;-46
2022/07/22 06:05:07;;;;;;;16.70;8.40;;;;;;;17.00;88.69;102050.78;5029353;28;20067;-46
2022/07/22 06:07:33;;;;;;;18.52;8.70;;;;;;;17.06;89.01;102047.59;5028796;28;20423;-46
2022/07/22 06:09:58;;;;;;;12.60;8.10;;;;;;;17.13;88.51;102058.66;5029655;28;20024;-46
2022/07/22 06:12:23;;;;;;;16.77;8.95;;;;;;;17.22;88.04;102051.66;5028691;28;20314;-46
2022/07/22 06:14:49;;;;;;;20.38;8.43;;;;;;;17.29;88.58;102056.38;5029521;28;20101;-46
2022/07/22 06:17:14;;;;;;;16.33;6.75;;;;;;;17.37;85.86;102050.34;5011493;28;20018;-46
2022/07/22 06:19:39;;;;;;;14.65;7.40;;;;;;;17.45;85.61;102052.34;5028216;28;20021;-46
2022/07/22 06:22:05;;;;;;;14.05;7.45;;;;;;;17.48;86.33;102057.47;5029023;28;20025;-46
2022/07/22 06:24:30;;;;;;;13.82;6.63;;;;;;;17.57;85.18;102054.84;5029556;28;20108;-46
2022/07/22 06:26:55;;;;;;;12.50;5.82;;;;;;;17.63;83.83;102056.13;5026485;28;20030;-47
2022/07/22 06:29:21;;;;;;;9.43;5.53;;;;;;;17.76;81.68;102054.06;5030236;28;20487;-46
2022/07/22 06:31:46;;;;;;;12.40;6.43;;;;;;;17.98;82.25;102052.19;5027878;28;20146;-46
2022/07/22 06:34:11;;;;;;;8.90;4.90;;;;;;;18.24;80.61;102049.88;5032685;28;20403;-45
2022/07/22 06:36:37;;;;;;;9.83;4.37;;;;;;;18.45;77.14;102046.19;5034696;28;20041;-47
2022/07/22 06:39:02;;;;;;;13.13;4.78;;;;;;;18.59;76.92;102050.34;5020579;28;20774;-46
2022/07/22 06:41:27;;;;;;;12.48;5.20;;;;;;;18.81;77.06;102047.34;5023134;28;20068;-45
2022/07/22 06:43:53;;;;;;;12.60;4.55;;;;;;;18.88;76.98;102039.59;5021644;28;20034;-45
2022/07/22 06:46:18;;;;;;;8.10;4.20;;;;;;;18.96;75.78;102038.88;5041159;28;20033;-46
2022/07/22 06:48:43;;;;;;;13.32;4.30;;;;;;;18.89;74.97;102041.31;5033061;28;20096;-46
2022/07/22 06:51:08;;;;;;;10.35;4.07;;;;;;;18.85;72.83;102045.25;5032020;28;20475;-47
2022/07/22 06:53:34;;;;;;;11.45;4.28;;;;;;;18.81;74.13;102041.97;5036596;28;20408;-46
2022/07/22 06:55:59;;;;;;;12.70;4.53;;;;;;;18.94;75.46;102049.78;5028464;28;20391;-45
2022/07/22 06:58:24;;;;;;;9.10;3.10;;;;;;;19.07;69.43;102046.81;5018090;28;20038;-46
2022/07/22 07:00:50;;;;;;;11.38;3.30;;;;;;;19.10;71.20;102053.72;5023102;28;20056;-46
2022/07/22 07:03:15;;;;;;;7.93;3.65;;;;;;;19.12;70.94;102049.91;5032025;28;20071;-46
2022/07/22 07:05:41;;;;;;;8.50;2.63;;;;;;;19.13;68.80;102050.75;5032398;28;20029;-46
2022/07/22 07:08:06;;;;;;;9.07;3.22;;;;;;;19.09;69.03;102052.91;5033902;28;20517;-46
2022/07/22 07:10:31;;;;;;;5.40;2.70;;;;;;;19.10;66.40;102048.34;5032079;28;20479;-46
2022/07/22 07:12:57;;;;;;;11.18;2.83;;;;;;;19.36;70.45;102044.03;5033847;28;20308;-46
2022/07/22 07:15:27;;;;;;;4.07;2.15;;;;;;;19.57;67.35;102034.91;5032024;28;20029;-46
2022/07/22 07:17:53;;;;;;;2.83;1.80;;;;;;;19.77;64.91;102031.16;5033169;28;20040;-46
2022/07/22 07:20:19;;;;;;;6.70;2.33;;;;;;;19.77;64.47;102041.09;5033318;28;20030;-44
2022/07/22 07:22:44;;;;;;;4.90;2.20;;;;;;;19.64;64.56;102035.16;5030982;28;20049;-45
2022/07/22 07:25:10;;;;;;;8.55;3.00;;;;;;;19.60;65.12;102029.19;5032191;28;20033;-46
2022/07/22 07:27:36;;;;;;;2.35;2.00;;;;;;;19.56;65.19;102035.91;5035814;28;20506;-46
2022/07/22 07:30:03;;;;;;;4.35;1.75;;;;;;;19.53;63.52;102038.88;5032138;28;20021;-46
2022/07/22 07:32:28;;;;;;;3.53;2.15;;;;;;;19.49;65.74;102037.50;5031798;28;20034;-45
2022/07/22 07:34:53;;;;;;;4.75;1.88;;;;;;;19.45;66.78;102042.34;5039658;28;20032;-46
2022/07/22 07:37:19;;;;;;;5.25;2.20;;;;;;;19.45;65.95;102042.34;5032390;28;20067;-46
2022/07/22 07:39:44;;;;;;;7.68;2.10;;;;;;;19.45;63.88;102036.94;5032400;28;20037;-46
2022/07/22 07:42:09;;;;;;;3.72;1.95;;;;;;;19.49;63.50;102035.63;5031502;28;20390;-45
2022/07/22 07:44:35;;;;;;;6.03;2.30;;;;;;;19.51;65.88;102028.25;5027765;28;20124;-44
2022/07/22 07:47:00;;;;;;;5.03;2.08;;;;;;;19.49;65.91;102022.16;5014490;28;20280;-46
2022/07/22 07:49:25;;;;;;;5.75;2.22;;;;;;;19.49;67.35;102034.81;5031740;28;20040;-44
2022/07/22 07:51:51;;;;;;;5.60;2.40;;;;;;;19.40;66.98;102029.28;5039998;28;20044;-45
2022/07/22 07:54:17;;;;;;;4.55;2.30;;;;;;;19.39;67.41;102032.97;5035931;28;20046;-45
2022/07/22 07:56:42;;;;;;;4.72;2.22;;;;;;;19.39;67.54;102035.66;5032953;28;20105;-45
2022/07/22 07:59:07;;;;;;;3.38;2.22;;;;;;;19.41;67.94;102039.06;5037934;28;20025;-45
2022/07/22 08:01:33;;;;;;;4.90;1.92;;;;;;;19.63;66.30;102033.47;5030366;28;20120;-44
2022/07/22 08:03:58;;;;;;;5.80;2.10;;;;;;;19.95;67.13;102031.22;5032016;28;20025;-46
2022/07/22 08:06:23;;;;;;;7.32;2.40;;;;;;;20.35;63.77;102026.44;5044896;28;20337;-46
2022/07/22 08:08:48;;;;;;;4.87;2.13;;;;;;;20.67;59.77;102028.59;5036911;28;20056;-47
2022/07/22 08:11:14;;;;;;;6.07;2.00;;;;;;;20.85;61.23;102028.59;5035823;28;20336;-45
2022/07/22 08:13:39;;;;;;;4.28;1.92;;;;;;;21.04;60.81;102030.25;5010190;28;20072;-44
2022/07/22 08:16:05;;;;;;;7.78;2.33;;;;;;;21.06;58.95;102030.94;5037461;28;20116;-45
2022/07/22 08:18:30;;;;;;;3.38;1.80;;;;;;;21.29;57.27;102021.47;5031119;28;20025;-45
2022/07/22 08:20:56;;;;;;;4.80;2.20;;;;;;;21.46;59.33;102019.72;5031270;28;20065;-46
2022/07/22 08:23:21;;;;;;;4.28;2.03;;;;;;;21.82;55.75;102028.53;5039857;28;20135;-45
2022/07/22 08:25:47;;;;;;;2.72;1.50;;;;;;;21.99;51.97;102024.84;5032676;28;20081;-46
2022/07/22 08:28:12;;;;;;;3.00;1.52;;;;;;;22.19;52.58;102024.59;5037169;28;20024;-45
2022/07/22 08:30:39;;;;;;;6.25;1.58;;;;;;;22.52;54.89;102019.25;5031285;28;20037;-46
2022/07/22 08:33:05;;;;;;;3.58;1.30;;;;;;;22.88;53.62;102018.91;5032401;28;20501;-46
2022/07/22 08:35:30;;;;;;;2.75;1.30;;;;;;;23.24;50.07;102015.84;5022230;28;20038;-45
2022/07/22 08:37:55;;;;;;;3.90;1.25;;;;;;;23.53;49.63;102006.28;5029675;28;20036;-46
2022/07/22 08:40:21;;;;;;;5.07;1.40;;;;;;;23.49;49.08;102005.78;5025093;28;20021;-46
2022/07/22 08:42:48;;;;;;;2.75;1.48;;;;;;;23.50;50.89;102001.19;5021476;28;20021;-44
2022/07/22 08:45:14;;;;;;;4.90;1.50;;;;;;;23.34;49.15;102002.09;5030502;28;20029;-47
2022/07/22 08:47:39;;;;;;;4.57;2.10;;;;;;;23.17;51.46;102004.84;5040640;28;20037;-45
2022/07/22 08:50:05;;;;;;;4.93;1.60;;;;;;;23.13;51.90;102005.38;5035656;28;20036;-46
2022/07/22 08:52:30;;;;;;;3.58;1.80;;;;;;;22.84;52.33;102001.31;5027609;28;20037;-46
2022/07/22 08:54:56;;;;;;;4.18;1.92;;;;;;;22.78;51.83;101996.56;5024871;28;20026;-46
2022/07/22 08:57:21;;;;;;;2.45;1.50;;;;;;;22.66;52.24;101998.78;5001316;28;20031;-44
2022/07/22 08:59:51;;;;;;;4.90;2.00;;;;;;;22.65;50.74;102003.34;5032946;28;20021;-45
2022/07/22 09:02:17;;;;;;;3.85;1.70;;;;;;;22.54;50.50;101995.56;5033117;28;20026;-44
2022/07/22 09:05:15;;;;;;;4.63;1.60;;;;;;;22.68;53.94;102002.16;5024694;28;20116;-44
2022/07/22 09:07:43;;;;;;;7.78;1.88;;;;;;;22.54;50.77;102006.41;4988272;28;20029;-45
2022/07/22 09:10:14;;;;;;;5.70;1.95;;;;;;;22.41;50.50;102008.75;5031194;28;20644;-44
2022/07/22 09:12:55;;;;;;;4.03;1.45;;;;;;;22.31;51.93;102007.03;5030398;28;20027;-44
2022/07/22 09:15:26;;;;;;;4.75;1.73;;;;;;;22.20;53.54;102001.94;5033760;28;20048;-45
2022/07/22 09:17:53;;;;;;;4.82;1.88;;;;;;;22.23;51.37;102003.44;5032415;28;20021;-45
2022/07/22 09:20:18;;;;;;;4.53;1.75;;;;;;;22.18;52.00;102002.09;5029108;28;20111;-45
2022/07/22 09:22:46;;;;;;;4.60;2.05;;;;;;;22.18;52.23;101996.69;5011161;28;20033;-46
2022/07/22 09:25:29;;;;;;;4.07;1.80;;;;;;;22.27;52.25;101992.13;5035441;28;20063;-45
2022/07/22 09:28:06;;;;;;;4.80;1.80;;;;;;;22.43;51.92;101996.75;5030198;28;20071;-45
2022/07/22 09:30:38;;;;;;;5.63;1.98;;;;;;;22.38;50.24;101987.44;5030622;28;20029;-46
2022/07/22 09:33:04;;;;;;;4.45;1.92;;;;;;;22.36;48.63;101987.59;5030988;28;20519;-45
2022/07/22 09:35:29;;;;;;;2.72;2.00;;;;;;;22.34;48.89;101989.63;5031180;28;20064;-46
2022/07/22 09:38:07;;;;;;;4.00;1.92;;;;;;;22.65;49.43;101984.41;5029586;28;20566;-45
2022/07/22 09:40:37;;;;;;;3.72;1.92;;;;;;;22.96;49.78;101982.84;5030796;28;20052;-45
2022/07/22 09:43:21;;;;;;;4.50;2.53;;;;;;;23.35;48.67;101976.66;5026023;28;20383;-46
2022/07/22 09:45:48;;;;;;;13.10;3.33;;;;;;;23.68;45.34;101976.56;5029894;28;20030;-47
2022/07/22 09:48:15;;;;;;;4.85;2.15;;;;;;;24.04;47.59;101974.19;5030854;28;20056;-46
2022/07/22 09:50:41;;;;;;;4.53;1.90;;;;;;;24.34;47.29;101968.88;5032541;28;20110;-46
2022/07/22 09:53:06;;;;;;;3.72;2.05;;;;;;;24.72;46.52;101971.66;5027229;28;20051;-46
2022/07/22 09:55:33;;;;;;;5.00;2.40;;;;;;;24.80;44.63;101971.59;5027690;28;20052;-46
2022/07/22 09:57:59;;;;;;;4.47;2.78;;;;;;;25.06;41.97;101978.44;5032120;28;20109;-46
2022/07/22 10:00:26;;;;;;;3.38;2.20;;;;;;;25.21;45.02;101976.56;5029113;28;20112;-46
2022/07/22 10:02:55;;;;;;;4.10;1.90;;;;;;;25.28;43.80;101977.56;5017783;28;20444;-46
2022/07/22 10:05:24;;;;;;;3.60;1.95;;;;;;;25.28;44.34;101974.84;5031768;28;20076;-46
2022/07/22 10:07:50;;;;;;;3.28;1.90;;;;;;;25.36;44.57;101975.78;5032938;28;20113;-45
2022/07/22 10:10:18;;;;;;;4.15;2.28;;;;;;;25.33;47.04;101976.13;5031914;28;20097;-51
2022/07/22 10:12:47;;;;;;;6.90;2.28;;;;;;;25.09;46.64;101980.81;5030803;28;20033;-45
2022/07/22 10:15:12;;;;;;;4.82;2.20;;;;;;;25.07;45.64;101980.16;5038450;28;20060;-47
2022/07/22 10:17:42;;;;;;;5.47;2.10;;;;;;;24.99;46.48;101981.06;5036007;28;20069;-45
2022/07/22 10:20:09;;;;;;;4.75;2.42;;;;;;;25.10;45.85;101977.06;5032374;28;20086;-46
2022/07/22 10:22:41;;;;;;;3.83;2.15;;;;;;;25.20;45.42;101979.50;5031472;28;20071;-44
2022/07/22 10:25:08;;;;;;;4.35;1.98;;;;;;;25.21;45.53;101983.91;5044560;28;20564;-45
2022/07/22 10:27:54;;;;;;;5.45;2.20;;;;;;;25.18;45.85;101984.25;5032271;28;20026;-48
2022/07/22 10:30:25;;;;;;;3.70;2.38;;;;;;;24.98;44.81;101979.41;5027872;28;20052;-45
2022/07/22 10:33:07;;;;;;;3.50;2.15;;;;;;;25.51;46.17;101982.03;5013124;28;20544;-44
2022/07/22 10:35:48;;;;;;;4.82;2.42;;;;;;;25.72;42.79;101980.44;5023539;28;20025;-45
2022/07/22 10:38:14;;;;;;;5.05;2.60;;;;;;;25.69;41.88;101965.31;5017581;28;20045;-45
2022/07/22 10:40:51;;;;;;;4.28;2.60;;;;;;;25.79;43.45;101992.22;5021430;28;20130;-44
2022/07/22 10:43:18;;;;;;;3.42;2.35;;;;;;;25.57;41.27;101980.47;5021047;28;20048;-47
2022/07/22 10:45:52;;;;;;;4.97;2.13;;;;;;;25.77;43.67;101972.53;5024040;28;20418;-47
2022/07/22 10:48:25;;;;;;;7.53;2.65;;;;;;;25.79;42.64;101967.75;5031714;28;20057;-45
2022/07/22 10:51:04;;;;;;;5.28;2.60;;;;;;;25.51;44.73;101968.44;5027208;28;20121;-47
2022/07/22 10:53:52;;;;;;;4.05;2.20;;;;;;;25.74;45.23;101962.03;5020646;28;20141;-46
2022/07/22 10:56:31;;;;;;;3.08;2.47;;;;;;;25.77;43.94;101959.75;5030005;28;20076;-45
2022/07/22 10:59:11;;;;;;;6.35;2.75;;;;;;;25.47;41.93;101965.25;5027154;28;20041;-46
2022/07/22 11:01:39;;;;;;;4.53;2.60;;;;;;;25.37;43.37;101964.72;5020414;28;20035;-48
2022/07/22 11:04:12;;;;;;;5.95;2.83;;;;;;;25.32;44.44;101960.88;5015565;28;20042;-46
2022/07/22 11:06:38;;;;;;;5.57;3.22;;;;;;;25.21;42.46;101951.28;5015065;28;20033;-47
2022/07/22 11:09:07;;;;;;;5.47;3.08;;;;;;;25.10;42.98;101950.72;5018317;28;20048;-45
2022/07/22 11:11:34;;;;;;;5.47;2.90;;;;;;;25.05;43.30;101952.31;5025772;28;20021;-46
2022/07/22 11:14:00;;;;;;;4.75;2.70;;;;;;;25.05;45.00;101955.03;5033179;28;20033;-46
2022/07/22 11:16:27;;;;;;;4.20;2.53;;;;;;;25.04;45.00;101956.06;5042326;28;20037;-45
2022/07/22 11:18:59;;;;;;;6.68;2.85;;;;;;;25.33;44.59;101955.25;5033137;28;20041;-45